sensor_id;sensor_type;location;lat;lon;timestamp;pressure;altitude;pressure_sealevel;temperature;humidity
79791;BME280;69278;52.220;5.172;2023-06-22T00:01:18;101986.69;;;23.07;58.08
79791;BME280;69278;52.220;5.172;2023-06-22T00:03:45;101995.13;;;23.26;57.86
79791;BME280;69278;52.220;5.172;2023-06-22T00:06:12;101996.81;;;23.27;57.95
79791;BME280;69278;52.220;5.172;2023-06-22T00:08:39;101990.59;;;23.26;57.81
79791;BME280;69278;52.220;5.172;2023-06-22T00:11:06;102001.91;;;23.22;58.35
79791;BME280;69278;52.220;5.172;2023-06-22T00:13:32;101994.81;;;23.14;58.51
79791;BME280;69278;52.220;5.172;2023-06-22T00:15:58;101999.06;;;23.08;58.90
79791;BME280;69278;52.220;5.172;2023-06-22T00:18:25;101995.09;;;23.04;59.19
79791;BME280;69278;52.220;5.172;2023-06-22T00:20:57;102002.06;;;22.99;59.02
79791;BME280;69278;52.220;5.172;2023-06-22T00:23:25;101994.00;;;22.99;59.29
79791;BME280;69278;52.220;5.172;2023-06-22T00:25:52;101998.38;;;23.00;59.24
79791;BME280;69278;52.220;5.172;2023-06-22T00:28:19;101977.19;;;22.90;59.39
79791;BME280;69278;52.220;5.172;2023-06-22T00:30:45;101965.97;;;22.87;59.00
79791;BME280;69278;52.220;5.172;2023-06-22T00:33:12;101995.88;;;22.98;59.17
79791;BME280;69278;52.220;5.172;2023-06-22T00:35:38;101994.41;;;22.96;59.57
79791;BME280;69278;52.220;5.172;2023-06-22T00:38:07;101984.88;;;22.93;59.19
79791;BME280;69278;52.220;5.172;2023-06-22T00:40:34;101992.25;;;22.91;59.60
79791;BME280;69278;52.220;5.172;2023-06-22T00:43:01;101971.38;;;22.72;59.48
79791;BME280;69278;52.220;5.172;2023-06-22T00:45:28;101981.38;;;22.78;59.80
79791;BME280;69278;52.220;5.172;2023-06-22T00:47:57;101979.06;;;22.75;60.08
79791;BME280;69278;52.220;5.172;2023-06-22T00:50:29;101966.75;;;22.66;60.31
79791;BME280;69278;52.220;5.172;2023-06-22T00:53:05;101948.41;;;22.55;60.32
79791;BME280;69278;52.220;5.172;2023-06-22T00:55:38;101955.91;;;22.60;60.19
79791;BME280;69278;52.220;5.172;2023-06-22T00:58:08;101964.91;;;22.67;60.51
79791;BME280;69278;52.220;5.172;2023-06-22T01:00:37;101965.09;;;22.65;60.28
79791;BME280;69278;52.220;5.172;2023-06-22T01:03:05;101959.56;;;22.67;60.22
79791;BME280;69278;52.220;5.172;2023-06-22T01:05:36;101960.75;;;22.64;60.36
79791;BME280;69278;52.220;5.172;2023-06-22T01:08:29;101966.50;;;22.61;60.58
79791;BME280;69278;52.220;5.172;2023-06-22T01:11:08;101958.13;;;22.56;60.76
79791;BME280;69278;52.220;5.172;2023-06-22T01:16:16;101965.34;;;22.56;60.76
79791;BME280;69278;52.220;5.172;2023-06-22T01:18:45;101970.84;;;22.62;60.25
79791;BME280;69278;52.220;5.172;2023-06-22T01:21:16;101967.88;;;22.57;60.68
79791;BME280;69278;52.220;5.172;2023-06-22T01:26:40;101961.09;;;22.46;61.02
79791;BME280;69278;52.220;5.172;2023-06-22T01:29:10;101967.69;;;22.44;60.80
79791;BME280;69278;52.220;5.172;2023-06-22T01:31:39;101936.13;;;22.31;60.77
79791;BME280;69278;52.220;5.172;2023-06-22T01:34:08;101952.06;;;22.33;60.88
79791;BME280;69278;52.220;5.172;2023-06-22T01:36:35;101963.06;;;22.38;60.98
79791;BME280;69278;52.220;5.172;2023-06-22T01:39:02;101968.81;;;22.35;61.23
79791;BME280;69278;52.220;5.172;2023-06-22T01:41:36;101974.63;;;22.38;61.09
79791;BME280;69278;52.220;5.172;2023-06-22T01:44:07;101970.72;;;22.41;61.29
79791;BME280;69278;52.220;5.172;2023-06-22T01:46:35;101963.06;;;22.38;61.25
79791;BME280;69278;52.220;5.172;2023-06-22T01:49:03;101931.81;;;22.16;61.16
79791;BME280;69278;52.220;5.172;2023-06-22T01:51:30;101960.75;;;22.35;61.00
79791;BME280;69278;52.220;5.172;2023-06-22T01:53:57;101958.63;;;22.30;61.24
79791;BME280;69278;52.220;5.172;2023-06-22T01:56:23;101952.50;;;22.22;61.53
79791;BME280;69278;52.220;5.172;2023-06-22T01:59:10;101948.63;;;22.10;62.06
79791;BME280;69278;52.220;5.172;2023-06-22T02:01:50;101944.09;;;22.10;62.09
79791;BME280;69278;52.220;5.172;2023-06-22T02:04:24;101926.44;;;22.01;61.72
79791;BME280;69278;52.220;5.172;2023-06-22T02:06:56;101909.78;;;21.91;61.64
79791;BME280;69278;52.220;5.172;2023-06-22T02:09:28;101893.28;;;21.79;61.74
79791;BME280;69278;52.220;5.172;2023-06-22T02:11:55;101930.19;;;22.07;61.61
79791;BME280;69278;52.220;5.172;2023-06-22T02:14:23;101945.84;;;22.18;61.64
79791;BME280;69278;52.220;5.172;2023-06-22T02:16:51;101949.66;;;22.23;61.46
79791;BME280;69278;52.220;5.172;2023-06-22T02:19:23;101946.88;;;22.17;61.67
79791;BME280;69278;52.220;5.172;2023-06-22T02:21:49;101943.63;;;22.07;61.70
79791;BME280;69278;52.220;5.172;2023-06-22T02:24:16;101945.66;;;22.05;61.72
79791;BME280;69278;52.220;5.172;2023-06-22T02:26:43;101948.19;;;22.06;61.71
79791;BME280;69278;52.220;5.172;2023-06-22T02:29:11;101929.00;;;21.95;61.93
79791;BME280;69278;52.220;5.172;2023-06-22T02:31:38;101919.69;;;21.82;62.03
79791;BME280;69278;52.220;5.172;2023-06-22T02:34:04;101943.81;;;21.91;62.07
79791;BME280;69278;52.220;5.172;2023-06-22T02:36:31;101938.91;;;21.94;62.17
79791;BME280;69278;52.220;5.172;2023-06-22T02:38:59;101942.78;;;21.92;62.29
79791;BME280;69278;52.220;5.172;2023-06-22T02:41:28;101935.75;;;21.91;61.95
79791;BME280;69278;52.220;5.172;2023-06-22T02:43:54;101940.66;;;21.87;62.26
79791;BME280;69278;52.220;5.172;2023-06-22T02:46:21;101940.47;;;21.89;62.21
79791;BME280;69278;52.220;5.172;2023-06-22T02:48:47;101938.63;;;21.89;62.19
79791;BME280;69278;52.220;5.172;2023-06-22T02:51:14;101935.94;;;21.89;62.38
79791;BME280;69278;52.220;5.172;2023-06-22T02:53:41;101930.44;;;21.82;62.19
79791;BME280;69278;52.220;5.172;2023-06-22T02:56:10;101917.13;;;21.74;62.45
79791;BME280;69278;52.220;5.172;2023-06-22T02:58:38;101932.66;;;21.79;62.68
79791;BME280;69278;52.220;5.172;2023-06-22T03:01:05;101926.16;;;21.73;62.69
79791;BME280;69278;52.220;5.172;2023-06-22T03:03:32;101928.22;;;21.71;62.38
79791;BME280;69278;52.220;5.172;2023-06-22T03:05:59;101933.22;;;21.74;62.30
79791;BME280;69278;52.220;5.172;2023-06-22T03:08:28;101920.34;;;21.70;62.59
79791;BME280;69278;52.220;5.172;2023-06-22T03:10:55;101927.84;;;21.74;62.34
79791;BME280;69278;52.220;5.172;2023-06-22T03:13:21;101928.94;;;21.80;62.40
79791;BME280;69278;52.220;5.172;2023-06-22T03:15:48;101924.97;;;21.76;62.28
79791;BME280;69278;52.220;5.172;2023-06-22T03:18:14;101931.13;;;21.85;62.08
79791;BME280;69278;52.220;5.172;2023-06-22T03:20:42;101921.66;;;21.74;62.09
79791;BME280;69278;52.220;5.172;2023-06-22T03:23:08;101934.31;;;21.80;62.35
79791;BME280;69278;52.220;5.172;2023-06-22T03:25:35;101917.13;;;21.74;62.36
79791;BME280;69278;52.220;5.172;2023-06-22T03:28:01;101941.00;;;21.84;62.23
79791;BME280;69278;52.220;5.172;2023-06-22T03:30:28;101913.13;;;21.70;62.29
79791;BME280;69278;52.220;5.172;2023-06-22T03:32:55;101926.41;;;21.87;62.12
79791;BME280;69278;52.220;5.172;2023-06-22T03:35:22;101920.03;;;21.88;61.95
79791;BME280;69278;52.220;5.172;2023-06-22T03:37:49;101894.75;;;21.67;61.87
79791;BME280;69278;52.220;5.172;2023-06-22T03:40:15;101915.44;;;21.73;62.25
79791;BME280;69278;52.220;5.172;2023-06-22T03:42:42;101914.81;;;21.71;62.40
79791;BME280;69278;52.220;5.172;2023-06-22T03:45:09;101894.34;;;21.56;62.56
79791;BME280;69278;52.220;5.172;2023-06-22T03:47:35;101918.38;;;21.64;62.71
79791;BME280;69278;52.220;5.172;2023-06-22T03:50:02;101884.91;;;21.45;62.60
79791;BME280;69278;52.220;5.172;2023-06-22T03:52:30;101915.63;;;21.57;62.55
79791;BME280;69278;52.220;5.172;2023-06-22T03:54:56;101916.63;;;21.56;62.97
79791;BME280;69278;52.220;5.172;2023-06-22T03:57:23;101907.28;;;21.52;62.86
79791;BME280;69278;52.220;5.172;2023-06-22T03:59:50;101924.03;;;21.69;62.74
79791;BME280;69278;52.220;5.172;2023-06-22T04:02:16;101913.13;;;21.70;62.41
79791;BME280;69278;52.220;5.172;2023-06-22T04:04:43;101921.38;;;21.69;62.68
79791;BME280;69278;52.220;5.172;2023-06-22T04:07:09;101912.84;;;21.65;62.85
79791;BME280;69278;52.220;5.172;2023-06-22T04:09:36;101914.88;;;21.63;62.71
79791;BME280;69278;52.220;5.172;2023-06-22T04:12:03;101887.88;;;21.50;62.68
79791;BME280;69278;52.220;5.172;2023-06-22T04:14:29;101915.25;;;21.60;62.85
79791;BME280;69278;52.220;5.172;2023-06-22T04:16:58;101916.97;;;21.53;63.43
79791;BME280;69278;52.220;5.172;2023-06-22T04:19:24;101901.28;;;21.50;63.33
79791;BME280;69278;52.220;5.172;2023-06-22T04:21:50;101900.97;;;21.45;63.78
79791;BME280;69278;52.220;5.172;2023-06-22T04:24:17;101889.13;;;21.40;63.80
79791;BME280;69278;52.220;5.172;2023-06-22T04:26:43;101892.66;;;21.40;63.95
79791;BME280;69278;52.220;5.172;2023-06-22T04:29:12;101901.41;;;21.34;64.31
79791;BME280;69278;52.220;5.172;2023-06-22T04:31:38;101901.44;;;21.11;64.85
79791;BME280;69278;52.220;5.172;2023-06-22T04:34:06;101881.66;;;20.90;65.47
79791;BME280;69278;52.220;5.172;2023-06-22T04:36:40;101898.66;;;20.97;65.54
79791;BME280;69278;52.220;5.172;2023-06-22T04:39:08;101892.41;;;20.82;66.19
79791;BME280;69278;52.220;5.172;2023-06-22T04:41:37;101903.94;;;20.82;66.10
79791;BME280;69278;52.220;5.172;2023-06-22T04:44:17;101883.38;;;20.83;66.05
79791;BME280;69278;52.220;5.172;2023-06-22T04:46:51;101910.34;;;21.04;65.77
79791;BME280;69278;52.220;5.172;2023-06-22T04:49:20;101904.47;;;21.08;65.25
79791;BME280;69278;52.220;5.172;2023-06-22T04:51:48;101903.94;;;21.13;65.48
79791;BME280;69278;52.220;5.172;2023-06-22T04:54:18;101904.28;;;21.10;65.74
79791;BME280;69278;52.220;5.172;2023-06-22T04:56:44;101893.94;;;21.07;65.57
79791;BME280;69278;52.220;5.172;2023-06-22T04:59:12;101909.88;;;21.23;65.65
79791;BME280;69278;52.220;5.172;2023-06-22T05:01:39;101879.81;;;21.13;65.44
79791;BME280;69278;52.220;5.172;2023-06-22T05:04:06;101905.75;;;21.35;65.25
79791;BME280;69278;52.220;5.172;2023-06-22T05:06:33;101910.75;;;21.38;65.04
79791;BME280;69278;52.220;5.172;2023-06-22T05:08:59;101903.66;;;21.45;65.28
79791;BME280;69278;52.220;5.172;2023-06-22T05:11:27;101899.78;;;21.48;64.96
79791;BME280;69278;52.220;5.172;2023-06-22T05:13:54;101868.88;;;21.37;64.94
79791;BME280;69278;52.220;5.172;2023-06-22T05:16:21;101896.66;;;21.59;65.01
79791;BME280;69278;52.220;5.172;2023-06-22T05:18:52;101895.47;;;21.61;65.67
79791;BME280;69278;52.220;5.172;2023-06-22T05:21:22;101890.91;;;21.47;65.58
79791;BME280;69278;52.220;5.172;2023-06-22T05:23:50;101894.22;;;21.49;65.82
79791;BME280;69278;52.220;5.172;2023-06-22T05:26:18;101885.66;;;21.54;65.56
79791;BME280;69278;52.220;5.172;2023-06-22T05:28:45;101889.44;;;21.59;65.24
79791;BME280;69278;52.220;5.172;2023-06-22T05:31:15;101908.03;;;21.75;65.22
79791;BME280;69278;52.220;5.172;2023-06-22T05:33:43;101911.84;;;21.81;65.32
79791;BME280;69278;52.220;5.172;2023-06-22T05:36:10;101897.78;;;21.79;65.24
79791;BME280;69278;52.220;5.172;2023-06-22T05:38:37;101907.00;;;21.85;65.47
79791;BME280;69278;52.220;5.172;2023-06-22T05:41:03;101912.69;;;21.81;65.61
79791;BME280;69278;52.220;5.172;2023-06-22T05:43:30;101911.75;;;21.74;66.26
79791;BME280;69278;52.220;5.172;2023-06-22T05:45:57;101912.75;;;21.73;66.23
79791;BME280;69278;52.220;5.172;2023-06-22T05:48:24;101886.41;;;21.62;65.84
79791;BME280;69278;52.220;5.172;2023-06-22T05:50:50;101906.69;;;21.79;65.70
79791;BME280;69278;52.220;5.172;2023-06-22T05:53:17;101921.50;;;21.90;65.67
79791;BME280;69278;52.220;5.172;2023-06-22T05:55:43;101930.31;;;21.99;65.21
79791;BME280;69278;52.220;5.172;2023-06-22T05:58:10;101924.59;;;22.02;65.17
79791;BME280;69278;52.220;5.172;2023-06-22T06:00:36;101881.34;;;21.82;65.84
79791;BME280;69278;52.220;5.172;2023-06-22T06:03:03;101923.00;;;21.93;66.87
79791;BME280;69278;52.220;5.172;2023-06-22T06:05:34;101916.53;;;21.87;66.96
79791;BME280;69278;52.220;5.172;2023-06-22T06:08:02;101918.66;;;21.92;66.48
79791;BME280;69278;52.220;5.172;2023-06-22T06:10:29;101907.66;;;21.87;66.01
79791;BME280;69278;52.220;5.172;2023-06-22T06:12:56;101925.59;;;22.01;66.06
79791;BME280;69278;52.220;5.172;2023-06-22T06:15:23;101917.06;;;21.97;66.26
79791;BME280;69278;52.220;5.172;2023-06-22T06:17:51;101911.97;;;22.02;66.09
79791;BME280;69278;52.220;5.172;2023-06-22T06:20:20;101919.75;;;22.12;66.07
79791;BME280;69278;52.220;5.172;2023-06-22T06:22:47;101894.78;;;22.11;65.86
79791;BME280;69278;52.220;5.172;2023-06-22T06:25:13;101899.47;;;22.24;65.31
79791;BME280;69278;52.220;5.172;2023-06-22T06:27:43;101909.00;;;22.26;65.42
79791;BME280;69278;52.220;5.172;2023-06-22T06:30:11;101855.56;;;21.96;65.20
79791;BME280;69278;52.220;5.172;2023-06-22T06:32:38;101903.75;;;22.33;65.82
79791;BME280;69278;52.220;5.172;2023-06-22T06:35:07;101896.13;;;22.36;65.36
79791;BME280;69278;52.220;5.172;2023-06-22T06:37:37;101904.81;;;22.38;65.81
79791;BME280;69278;52.220;5.172;2023-06-22T06:40:08;101894.56;;;22.42;65.49
79791;BME280;69278;52.220;5.172;2023-06-22T06:42:41;101829.75;;;21.95;65.44
79791;BME280;69278;52.220;5.172;2023-06-22T06:45:08;101889.50;;;22.32;65.38
79791;BME280;69278;52.220;5.172;2023-06-22T06:47:35;101894.00;;;22.32;65.26
79791;BME280;69278;52.220;5.172;2023-06-22T06:50:03;101897.97;;;22.36;65.55
79791;BME280;69278;52.220;5.172;2023-06-22T06:52:30;101856.13;;;22.06;65.47
79791;BME280;69278;52.220;5.172;2023-06-22T06:54:56;101889.50;;;22.32;65.65
79791;BME280;69278;52.220;5.172;2023-06-22T06:57:23;101889.03;;;22.29;65.78
79791;BME280;69278;52.220;5.172;2023-06-22T06:59:49;101889.84;;;22.29;65.66
79791;BME280;69278;52.220;5.172;2023-06-22T07:02:16;101875.72;;;22.21;65.77
79791;BME280;69278;52.220;5.172;2023-06-22T07:04:42;101893.09;;;22.25;65.88
79791;BME280;69278;52.220;5.172;2023-06-22T07:07:09;101890.50;;;22.31;65.58
79791;BME280;69278;52.220;5.172;2023-06-22T07:09:35;101886.88;;;22.39;65.24
79791;BME280;69278;52.220;5.172;2023-06-22T07:12:02;101877.97;;;22.38;65.01
79791;BME280;69278;52.220;5.172;2023-06-22T07:14:28;101882.88;;;22.50;64.61
79791;BME280;69278;52.220;5.172;2023-06-22T07:16:55;101881.09;;;22.57;64.32
79791;BME280;69278;52.220;5.172;2023-06-22T07:19:27;101879.91;;;22.59;64.35
79791;BME280;69278;52.220;5.172;2023-06-22T07:21:54;101868.63;;;22.49;64.12
79791;BME280;69278;52.220;5.172;2023-06-22T07:24:21;101875.19;;;22.61;64.40
79791;BME280;69278;52.220;5.172;2023-06-22T07:26:48;101862.94;;;22.59;64.17
79791;BME280;69278;52.220;5.172;2023-06-22T07:29:20;101872.13;;;22.64;64.19
79791;BME280;69278;52.220;5.172;2023-06-22T07:31:48;101879.78;;;22.67;64.29
79791;BME280;69278;52.220;5.172;2023-06-22T07:34:16;101845.47;;;22.48;64.08
79791;BME280;69278;52.220;5.172;2023-06-22T07:36:43;101877.31;;;22.66;64.16
79791;BME280;69278;52.220;5.172;2023-06-22T07:39:10;101875.00;;;22.63;64.31
79791;BME280;69278;52.220;5.172;2023-06-22T07:41:39;101862.41;;;22.63;64.20
79791;BME280;69278;52.220;5.172;2023-06-22T07:44:05;101874.69;;;22.72;64.41
79791;BME280;69278;52.220;5.172;2023-06-22T07:46:32;101868.94;;;22.75;64.08
79791;BME280;69278;52.220;5.172;2023-06-22T07:48:59;101862.94;;;22.73;63.91
79791;BME280;69278;52.220;5.172;2023-06-22T07:51:27;101861.13;;;22.80;64.06
79791;BME280;69278;52.220;5.172;2023-06-22T07:53:53;101848.34;;;22.82;64.09
79791;BME280;69278;52.220;5.172;2023-06-22T07:56:20;101852.75;;;22.90;63.66
79791;BME280;69278;52.220;5.172;2023-06-22T07:58:47;101856.66;;;22.87;63.81
79791;BME280;69278;52.220;5.172;2023-06-22T08:01:14;101850.03;;;22.83;63.86
79791;BME280;69278;52.220;5.172;2023-06-22T08:03:41;101836.38;;;22.85;63.95
79791;BME280;69278;52.220;5.172;2023-06-22T08:06:07;101845.66;;;23.03;64.09
79791;BME280;69278;52.220;5.172;2023-06-22T08:08:36;101837.84;;;23.08;63.94
79791;BME280;69278;52.220;5.172;2023-06-22T08:11:03;101823.38;;;23.09;63.16
79791;BME280;69278;52.220;5.172;2023-06-22T08:13:29;101839.22;;;23.26;63.03
79791;BME280;69278;52.220;5.172;2023-06-22T08:15:56;101835.13;;;23.30;62.86
79791;BME280;69278;52.220;5.172;2023-06-22T08:18:22;101830.78;;;23.29;61.84
79791;BME280;69278;52.220;5.172;2023-06-22T08:20:49;101815.63;;;23.21;61.94
79791;BME280;69278;52.220;5.172;2023-06-22T08:23:16;101829.34;;;23.33;61.98
79791;BME280;69278;52.220;5.172;2023-06-22T08:25:43;101824.69;;;23.41;61.62
79791;BME280;69278;52.220;5.172;2023-06-22T08:28:09;101814.38;;;23.45;61.46
79791;BME280;69278;52.220;5.172;2023-06-22T08:30:36;101814.59;;;23.50;61.15
79791;BME280;69278;52.220;5.172;2023-06-22T08:33:02;101808.00;;;23.52;61.07
79791;BME280;69278;52.220;5.172;2023-06-22T08:35:29;101811.00;;;23.64;61.28
79791;BME280;69278;52.220;5.172;2023-06-22T08:37:56;101788.81;;;23.62;61.03
79791;BME280;69278;52.220;5.172;2023-06-22T08:40:24;101807.72;;;23.75;60.01
79791;BME280;69278;52.220;5.172;2023-06-22T08:42:50;101806.72;;;23.76;60.01
79791;BME280;69278;52.220;5.172;2023-06-22T08:45:17;101807.38;;;23.85;60.18
79791;BME280;69278;52.220;5.172;2023-06-22T08:47:44;101810.53;;;23.95;59.56
79791;BME280;69278;52.220;5.172;2023-06-22T08:50:11;101809.72;;;24.01;59.42
79791;BME280;69278;52.220;5.172;2023-06-22T08:52:39;101805.16;;;24.01;58.34
79791;BME280;69278;52.220;5.172;2023-06-22T08:55:08;101803.97;;;24.10;58.92
79791;BME280;69278;52.220;5.172;2023-06-22T08:57:35;101799.44;;;24.17;59.50
79791;BME280;69278;52.220;5.172;2023-06-22T09:00:08;101789.56;;;24.24;58.83
79791;BME280;69278;52.220;5.172;2023-06-22T09:02:42;101775.66;;;24.27;58.18
79791;BME280;69278;52.220;5.172;2023-06-22T09:05:09;101790.81;;;24.41;58.20
79791;BME280;69278;52.220;5.172;2023-06-22T09:07:36;101788.78;;;24.44;58.65
79791;BME280;69278;52.220;5.172;2023-06-22T09:10:03;101798.09;;;24.41;57.22
79791;BME280;69278;52.220;5.172;2023-06-22T09:12:31;101793.50;;;24.41;57.84
79791;BME280;69278;52.220;5.172;2023-06-22T09:15:00;101784.41;;;24.42;57.79
79791;BME280;69278;52.220;5.172;2023-06-22T09:17:26;101793.31;;;24.43;55.77
79791;BME280;69278;52.220;5.172;2023-06-22T09:19:53;101794.56;;;24.47;55.21
79791;BME280;69278;52.220;5.172;2023-06-22T09:22:20;101767.00;;;24.45;55.32
79791;BME280;69278;52.220;5.172;2023-06-22T09:24:47;101780.06;;;24.61;55.13
79791;BME280;69278;52.220;5.172;2023-06-22T09:27:13;101764.97;;;24.54;55.11
79791;BME280;69278;52.220;5.172;2023-06-22T09:29:40;101773.88;;;24.67;53.35
79791;BME280;69278;52.220;5.172;2023-06-22T09:32:06;101775.56;;;24.75;52.35
79791;BME280;69278;52.220;5.172;2023-06-22T09:34:33;101774.34;;;24.84;52.75
79791;BME280;69278;52.220;5.172;2023-06-22T09:37:00;101781.41;;;24.85;53.25
79791;BME280;69278;52.220;5.172;2023-06-22T09:39:27;101773.72;;;24.88;52.05
79791;BME280;69278;52.220;5.172;2023-06-22T09:41:53;101778.69;;;24.91;51.43
79791;BME280;69278;52.220;5.172;2023-06-22T09:44:20;101777.84;;;24.91;51.68
79791;BME280;69278;52.220;5.172;2023-06-22T09:46:46;101773.31;;;24.91;51.98
79791;BME280;69278;52.220;5.172;2023-06-22T09:49:13;101778.69;;;24.98;52.10
79791;BME280;69278;52.220;5.172;2023-06-22T09:51:39;101777.84;;;24.91;50.89
79791;BME280;69278;52.220;5.172;2023-06-22T09:54:06;101766.25;;;24.90;51.32
79791;BME280;69278;52.220;5.172;2023-06-22T09:56:32;101760.88;;;24.97;51.37
79791;BME280;69278;52.220;5.172;2023-06-22T09:58:59;101765.84;;;25.07;51.17
79791;BME280;69278;52.220;5.172;2023-06-22T10:01:43;101769.75;;;25.11;50.84
79791;BME280;69278;52.220;5.172;2023-06-22T10:04:09;101765.81;;;25.13;51.20
79791;BME280;69278;52.220;5.172;2023-06-22T10:06:36;101752.78;;;25.03;50.13
79791;BME280;69278;52.220;5.172;2023-06-22T10:09:07;101760.03;;;25.03;51.03
79791;BME280;69278;52.220;5.172;2023-06-22T10:11:34;101749.84;;;25.05;51.25
79791;BME280;69278;52.220;5.172;2023-06-22T10:14:01;101761.25;;;25.20;51.04
79791;BME280;69278;52.220;5.172;2023-06-22T10:16:32;101745.69;;;25.22;51.21
79791;BME280;69278;52.220;5.172;2023-06-22T10:18:58;101764.16;;;25.25;51.63
79791;BME280;69278;52.220;5.172;2023-06-22T10:21:25;101764.16;;;25.25;51.40
79791;BME280;69278;52.220;5.172;2023-06-22T10:23:53;101770.38;;;25.19;51.20
79791;BME280;69278;52.220;5.172;2023-06-22T10:26:19;101762.91;;;25.15;51.49
79791;BME280;69278;52.220;5.172;2023-06-22T10:28:46;101755.44;;;25.10;51.67
79791;BME280;69278;52.220;5.172;2023-06-22T10:31:12;101763.56;;;25.17;51.27
79791;BME280;69278;52.220;5.172;2023-06-22T10:33:39;101742.59;;;25.05;50.95
79791;BME280;69278;52.220;5.172;2023-06-22T10:36:07;101760.22;;;25.21;51.33
79791;BME280;69278;52.220;5.172;2023-06-22T10:38:34;101759.16;;;25.22;51.34
79791;BME280;69278;52.220;5.172;2023-06-22T10:41:00;101756.47;;;25.22;51.37
79791;BME280;69278;52.220;5.172;2023-06-22T10:43:27;101762.50;;;25.18;49.77
79791;BME280;69278;52.220;5.172;2023-06-22T10:45:53;101757.97;;;25.12;49.84
79791;BME280;69278;52.220;5.172;2023-06-22T10:48:19;101765.81;;;25.13;50.44
79791;BME280;69278;52.220;5.172;2023-06-22T10:50:46;101767.69;;;25.13;51.60
79791;BME280;69278;52.220;5.172;2023-06-22T10:53:13;101767.88;;;25.04;51.82
79791;BME280;69278;52.220;5.172;2023-06-22T10:55:40;101757.13;;;24.91;52.01
79791;BME280;69278;52.220;5.172;2023-06-22T10:58:12;101773.09;;;24.93;51.74
79791;BME280;69278;52.220;5.172;2023-06-22T11:00:39;101768.13;;;24.90;51.56
79791;BME280;69278;52.220;5.172;2023-06-22T11:03:05;101753.00;;;24.82;51.09
79791;BME280;69278;52.220;5.172;2023-06-22T11:05:32;101770.84;;;24.90;51.34
79791;BME280;69278;52.220;5.172;2023-06-22T11:07:58;101766.88;;;24.86;52.04
79791;BME280;69278;52.220;5.172;2023-06-22T11:10:25;101765.63;;;24.88;52.08
79791;BME280;69278;52.220;5.172;2023-06-22T11:12:54;101758.59;;;24.87;51.74
79791;BME280;69278;52.220;5.172;2023-06-22T11:15:22;101747.19;;;24.79;51.84
79791;BME280;69278;52.220;5.172;2023-06-22T11:17:49;101775.59;;;24.94;51.60
79791;BME280;69278;52.220;5.172;2023-06-22T11:20:15;101774.75;;;24.94;51.40
79791;BME280;69278;52.220;5.172;2023-06-22T11:22:42;101763.34;;;24.92;51.38
79791;BME280;69278;52.220;5.172;2023-06-22T11:25:09;101776.41;;;24.88;51.15
79791;BME280;69278;52.220;5.172;2023-06-22T11:27:37;101769.56;;;24.86;50.65
79791;BME280;69278;52.220;5.172;2023-06-22T11:30:04;101769.56;;;24.79;51.21
79791;BME280;69278;52.220;5.172;2023-06-22T11:32:30;101771.81;;;24.76;51.94
79791;BME280;69278;52.220;5.172;2023-06-22T11:34:57;101755.03;;;24.74;52.44
79791;BME280;69278;52.220;5.172;2023-06-22T11:37:23;101766.19;;;24.71;53.50
79791;BME280;69278;52.220;5.172;2023-06-22T11:39:50;101747.97;;;24.60;53.82
79791;BME280;69278;52.220;5.172;2023-06-22T11:42:25;101760.41;;;24.61;54.44
79791;BME280;69278;52.220;5.172;2023-06-22T11:44:51;101755.03;;;24.61;54.97
79791;BME280;69278;52.220;5.172;2023-06-22T11:47:18;101745.91;;;24.49;55.06
79791;BME280;69278;52.220;5.172;2023-06-22T11:49:44;101751.50;;;24.54;55.51
79791;BME280;69278;52.220;5.172;2023-06-22T11:52:11;101738.00;;;24.40;56.35
79791;BME280;69278;52.220;5.172;2023-06-22T11:54:38;101742.16;;;24.43;56.57
79791;BME280;69278;52.220;5.172;2023-06-22T11:57:05;101737.59;;;24.44;56.99
79791;BME280;69278;52.220;5.172;2023-06-22T11:59:31;101725.78;;;24.31;57.39
79791;BME280;69278;52.220;5.172;2023-06-22T12:01:58;101730.53;;;24.29;57.44
79791;BME280;69278;52.220;5.172;2023-06-22T12:04:24;101707.91;;;24.17;58.22
79791;BME280;69278;52.220;5.172;2023-06-22T12:06:51;101715.41;;;24.22;58.76
79791;BME280;69278;52.220;5.172;2023-06-22T12:09:17;101712.28;;;24.18;59.12
79791;BME280;69278;52.220;5.172;2023-06-22T12:11:44;101720.97;;;24.20;59.62
79791;BME280;69278;52.220;5.172;2023-06-22T12:14:10;101717.44;;;24.13;59.48
79791;BME280;69278;52.220;5.172;2023-06-22T12:16:37;101710.56;;;24.04;60.60
79791;BME280;69278;52.220;5.172;2023-06-22T12:19:04;101708.06;;;23.96;61.12
79791;BME280;69278;52.220;5.172;2023-06-22T12:21:30;101711.59;;;23.97;61.30
79791;BME280;69278;52.220;5.172;2023-06-22T12:23:56;101705.75;;;23.93;62.02
79791;BME280;69278;52.220;5.172;2023-06-22T12:26:23;101680.91;;;23.78;62.60
79791;BME280;69278;52.220;5.172;2023-06-22T12:28:49;101705.97;;;23.92;62.91
79791;BME280;69278;52.220;5.172;2023-06-22T12:31:17;101707.44;;;23.88;62.75
79791;BME280;69278;52.220;5.172;2023-06-22T12:33:43;101708.03;;;23.83;63.33
79791;BME280;69278;52.220;5.172;2023-06-22T12:36:10;101692.69;;;23.77;62.98
79791;BME280;69278;52.220;5.172;2023-06-22T12:38:36;101686.66;;;23.68;63.17
79791;BME280;69278;52.220;5.172;2023-06-22T12:41:03;101697.22;;;23.76;63.21
79791;BME280;69278;52.220;5.172;2023-06-22T12:43:29;101703.44;;;23.77;62.92
79791;BME280;69278;52.220;5.172;2023-06-22T12:45:56;101684.34;;;23.59;62.86
79791;BME280;69278;52.220;5.172;2023-06-22T12:48:25;101689.31;;;23.62;63.61
79791;BME280;69278;52.220;5.172;2023-06-22T12:50:52;101687.91;;;23.66;63.51
79791;BME280;69278;52.220;5.172;2023-06-22T12:53:20;101686.06;;;23.73;63.25
79791;BME280;69278;52.220;5.172;2023-06-22T12:55:49;101686.66;;;23.68;62.35
79791;BME280;69278;52.220;5.172;2023-06-22T12:58:15;101679.59;;;23.61;60.84